Time;durP1;ratioP1;P1;durP2;ratioP2;P2;SDS_P1;SDS_P2;PMS_P1;PMS_P2;Temp;Humidity;BMP_temperature;BMP_pressure;BME280_temperature;BME280_humidity;BME280_pressure;Samples;Min_cycle;Max_cycle;Signal;HPM_P1;HPM_P2
2021/10/24 00:01:32;;;;;;;18.40;8.43;;;;;;;;;;5050004;28;20025;-65
2021/10/24 00:03:58;;;;;;;18.52;8.60;;;;;;;;;;5048314;28;20024;-65
2021/10/24 00:06:23;;;;;;;23.70;8.77;;;;;;;;;;5038692;28;20087;-64
2021/10/24 00:08:48;;;;;;;19.13;8.25;;;;;;;;;;5045736;28;20477;-66
2021/10/24 00:11:14;;;;;;;17.77;8.02;;;;;;;;;;5050294;28;20048;-64
2021/10/24 00:13:39;;;;;;;16.73;7.25;;;;;;;;;;5049713;28;20017;-64
2021/10/24 00:16:04;;;;;;;22.95;8.35;;;;;;;;;;5049819;28;20370;-65
2021/10/24 00:18:30;;;;;;;20.38;7.65;;;;;;;;;;5049360;28;20021;-64
2021/10/24 00:20:55;;;;;;;25.92;7.43;;;;;;;;;;5045616;28;20466;-66
2021/10/24 00:23:20;;;;;;;16.65;7.10;;;;;;;;;;5045161;28;20146;-63
2021/10/24 00:25:46;;;;;;;15.32;7.97;;;;;;;;;;5050067;28;20021;-65
2021/10/24 00:28:11;;;;;;;20.45;7.35;;;;;;;;;;5049260;28;20036;-64
2021/10/24 00:30:37;;;;;;;19.80;8.15;;;;;;;;;;5049657;28;20474;-65
2021/10/24 00:33:03;;;;;;;19.50;7.72;;;;;;;;;;5049815;28;20429;-65
2021/10/24 00:35:28;;;;;;;11.32;6.43;;;;;;;;;;5049883;28;20044;-64
2021/10/24 00:37:53;;;;;;;14.90;7.78;;;;;;;;;;5047753;28;20057;-64
2021/10/24 00:40:19;;;;;;;18.05;7.05;;;;;;;;;;5043669;28;20025;-64
2021/10/24 00:42:49;;;;;;;17.60;8.20;;;;;;;;;;5030797;28;20033;-65
2021/10/24 00:45:14;;;;;;;15.07;7.03;;;;;;;;;;5042112;28;20418;-65
2021/10/24 00:47:39;;;;;;;14.48;7.40;;;;;;;;;;5043295;28;20033;-64
2021/10/24 00:50:04;;;;;;;16.27;7.55;;;;;;;;;;5046061;28;20031;-67
2021/10/24 00:52:31;;;;;;;28.42;8.65;;;;;;;;;;5049861;28;20031;-66
2021/10/24 00:54:56;;;;;;;13.90;7.57;;;;;;;;;;5048755;28;20021;-66
2021/10/24 00:57:21;;;;;;;22.70;7.95;;;;;;;;;;5053309;28;20555;-66
2021/10/24 00:59:46;;;;;;;18.58;7.53;;;;;;;;;;5053387;28;20017;-65
2021/10/24 01:02:13;;;;;;;17.75;8.40;;;;;;;;;;5053384;28;20420;-64
2021/10/24 01:04:39;;;;;;;22.48;8.38;;;;;;;;;;5053342;28;20515;-65
2021/10/24 01:07:05;;;;;;;15.82;7.43;;;;;;;;;;5053762;28;20050;-63
2021/10/24 01:09:31;;;;;;;26.77;8.88;;;;;;;;;;5053798;28;20138;-66
2021/10/24 01:11:57;;;;;;;18.88;7.45;;;;;;;;;;5054806;28;20039;-64
2021/10/24 01:14:22;;;;;;;19.42;8.05;;;;;;;;;;5053357;28;20021;-66
2021/10/24 01:16:49;;;;;;;15.48;8.27;;;;;;;;;;5053015;28;20219;-66
2021/10/24 01:19:14;;;;;;;20.52;8.57;;;;;;;;;;5053186;28;20036;-64
2021/10/24 01:21:40;;;;;;;12.00;6.97;;;;;;;;;;5047765;28;20017;-65
2021/10/24 01:24:05;;;;;;;22.45;9.07;;;;;;;;;;5045475;28;20025;-64
2021/10/24 01:26:33;;;;;;;20.20;8.75;;;;;;;;;;5053122;28;20017;-64
2021/10/24 01:28:58;;;;;;;19.38;6.90;;;;;;;;;;5056098;28;20040;-64
2021/10/24 01:31:23;;;;;;;17.95;7.88;;;;;;;;;;5052752;28;20025;-65
2021/10/24 01:33:49;;;;;;;17.42;7.22;;;;;;;;;;5051927;28;20013;-66
2021/10/24 01:36:14;;;;;;;21.13;7.65;;;;;;;;;;5052160;28;20080;-66
2021/10/24 01:38:42;;;;;;;20.58;7.25;;;;;;;;;;5052044;28;20044;-67
2021/10/24 01:41:08;;;;;;;22.08;8.00;;;;;;;;;;5052724;28;20021;-66
2021/10/24 01:43:33;;;;;;;22.92;7.90;;;;;;;;;;5052344;28;20017;-65
2021/10/24 01:45:58;;;;;;;18.70;7.88;;;;;;;;;;5052696;28;20024;-66
2021/10/24 01:48:24;;;;;;;14.57;7.20;;;;;;;;;;5051643;28;20051;-63
2021/10/24 01:50:50;;;;;;;17.50;7.53;;;;;;;;;;5052486;28;20064;-64
2021/10/24 01:53:19;;;;;;;17.20;7.28;;;;;;;;;;5052464;28;20017;-64
2021/10/24 01:55:45;;;;;;;18.67;7.13;;;;;;;;;;5052392;28;20059;-64
2021/10/24 01:58:11;;;;;;;16.02;8.75;;;;;;;;;;5052531;28;20036;-66
2021/10/24 02:00:36;;;;;;;16.60;7.25;;;;;;;;;;5052377;28;20025;-64
2021/10/24 02:03:02;;;;;;;14.95;7.20;;;;;;;;;;5052012;28;20478;-64
2021/10/24 02:05:28;;;;;;;17.45;6.85;;;;;;;;;;5051319;28;20021;-65
2021/10/24 02:07:53;;;;;;;12.73;7.30;;;;;;;;;;5052433;28;20082;-66
2021/10/24 02:10:19;;;;;;;18.23;7.60;;;;;;;;;;5052396;28;20485;-64
2021/10/24 02:12:44;;;;;;;17.70;8.13;;;;;;;;;;5051523;28;20304;-63
2021/10/24 02:15:10;;;;;;;15.27;7.20;;;;;;;;;;5054472;28;20465;-64
2021/10/24 02:17:35;;;;;;;15.15;7.50;;;;;;;;;;5051617;28;20036;-64
2021/10/24 02:20:01;;;;;;;19.13;7.22;;;;;;;;;;5051857;28;20017;-65
2021/10/24 02:22:27;;;;;;;25.23;7.78;;;;;;;;;;5051476;28;20029;-67
2021/10/24 02:24:52;;;;;;;15.40;8.02;;;;;;;;;;5051152;28;20120;-66
2021/10/24 02:27:18;;;;;;;18.52;6.38;;;;;;;;;;5051712;28;20517;-66
2021/10/24 02:29:46;;;;;;;14.40;7.25;;;;;;;;;;5051137;28;20025;-66
2021/10/24 02:32:12;;;;;;;19.02;7.78;;;;;;;;;;5051558;28;20017;-66
2021/10/24 02:34:37;;;;;;;18.73;6.93;;;;;;;;;;5051705;28;20082;-65
2021/10/24 02:37:02;;;;;;;19.83;9.32;;;;;;;;;;5052194;28;20017;-66
2021/10/24 02:39:28;;;;;;;20.75;7.68;;;;;;;;;;5051697;28;20117;-65
2021/10/24 02:41:53;;;;;;;18.90;8.18;;;;;;;;;;5047367;28;20029;-67
2021/10/24 02:44:18;;;;;;;17.58;7.32;;;;;;;;;;5042722;28;20470;-65
2021/10/24 02:46:44;;;;;;;20.00;7.20;;;;;;;;;;5051398;28;20025;-65
2021/10/24 02:49:09;;;;;;;15.90;7.40;;;;;;;;;;5071029;28;20020;-66
2021/10/24 02:51:34;;;;;;;19.65;8.80;;;;;;;;;;5054212;28;20025;-65
2021/10/24 02:53:59;;;;;;;17.98;7.22;;;;;;;;;;5051485;28;20021;-66
2021/10/24 02:56:25;;;;;;;20.75;7.60;;;;;;;;;;5051559;28;20027;-66
2021/10/24 02:58:50;;;;;;;15.05;6.57;;;;;;;;;;5051092;28;20036;-66
2021/10/24 03:01:16;;;;;;;10.95;6.78;;;;;;;;;;5050784;28;20111;-65
2021/10/24 03:03:41;;;;;;;16.08;6.45;;;;;;;;;;5051023;28;20326;-66
2021/10/24 03:06:06;;;;;;;11.93;6.20;;;;;;;;;;5051363;28;20350;-66
2021/10/24 03:08:31;;;;;;;20.23;7.13;;;;;;;;;;5050971;28;20029;-64
2021/10/24 03:10:57;;;;;;;14.85;7.00;;;;;;;;;;5050864;28;20110;-65
2021/10/24 03:13:22;;;;;;;25.08;9.57;;;;;;;;;;5050947;28;20019;-63
2021/10/24 03:15:47;;;;;;;18.13;7.43;;;;;;;;;;5050922;28;20596;-63
2021/10/24 03:18:13;;;;;;;17.13;7.80;;;;;;;;;;5051041;28;20028;-65
2021/10/24 03:20:38;;;;;;;16.77;6.90;;;;;;;;;;5050582;28;20428;-63
2021/10/24 03:23:03;;;;;;;22.77;7.75;;;;;;;;;;5050953;28;20021;-66
2021/10/24 03:25:28;;;;;;;16.08;7.53;;;;;;;;;;5053446;28;20413;-65
2021/10/24 03:27:53;;;;;;;19.95;8.10;;;;;;;;;;5050842;28;20033;-66
2021/10/24 03:30:19;;;;;;;17.77;7.18;;;;;;;;;;5049978;28;20111;-64
2021/10/24 03:32:44;;;;;;;21.75;7.47;;;;;;;;;;5050482;28;20028;-65
2021/10/24 03:35:09;;;;;;;17.77;7.03;;;;;;;;;;5050817;28;20025;-66
2021/10/24 03:37:34;;;;;;;15.93;6.65;;;;;;;;;;5034200;28;20416;-66
2021/10/24 03:40:00;;;;;;;18.92;7.78;;;;;;;;;;5049476;28;20086;-64
2021/10/24 03:42:25;;;;;;;13.27;7.47;;;;;;;;;;5050460;28;20037;-64
2021/10/24 03:44:50;;;;;;;15.65;7.60;;;;;;;;;;5050324;28;20115;-64
2021/10/24 03:47:15;;;;;;;14.27;6.70;;;;;;;;;;5050431;28;20067;-64
2021/10/24 03:49:42;;;;;;;14.38;7.88;;;;;;;;;;5040964;28;20029;-64
2021/10/24 03:52:07;;;;;;;16.25;6.57;;;;;;;;;;5049804;28;20074;-64
2021/10/24 03:54:32;;;;;;;20.48;7.20;;;;;;;;;;5050062;28;20104;-65
2021/10/24 03:56:57;;;;;;;22.60;7.13;;;;;;;;;;5063580;28;20036;-64
2021/10/24 03:59:22;;;;;;;16.58;6.88;;;;;;;;;;5070701;28;20024;-64
2021/10/24 04:01:48;;;;;;;16.08;7.53;;;;;;;;;;5066540;28;20035;-64
2021/10/24 04:04:13;;;;;;;13.60;7.13;;;;;;;;;;5070347;28;20060;-64
2021/10/24 04:06:38;;;;;;;22.95;7.15;;;;;;;;;;5070160;28;20021;-64
2021/10/24 04:09:03;;;;;;;16.45;7.90;;;;;;;;;;5070517;28;20029;-64
2021/10/24 04:11:28;;;;;;;16.08;7.25;;;;;;;;;;5056172;28;20014;-66
2021/10/24 04:13:54;;;;;;;20.45;8.52;;;;;;;;;;5049911;28;20487;-66
2021/10/24 04:16:19;;;;;;;17.20;6.85;;;;;;;;;;5050018;28;20084;-66
2021/10/24 04:18:44;;;;;;;15.52;7.80;;;;;;;;;;5050286;28;20045;-66
2021/10/24 04:21:09;;;;;;;16.10;8.52;;;;;;;;;;5049214;28;20021;-66
2021/10/24 04:23:35;;;;;;;13.85;6.65;;;;;;;;;;5048164;28;20075;-66
2021/10/24 04:26:00;;;;;;;22.10;7.95;;;;;;;;;;5049620;28;20109;-65
2021/10/24 04:28:25;;;;;;;23.55;7.68;;;;;;;;;;5052184;28;20491;-66
2021/10/24 04:30:50;;;;;;;13.73;7.47;;;;;;;;;;5053174;28;20075;-65
2021/10/24 04:33:16;;;;;;;18.92;7.05;;;;;;;;;;5053164;28;20020;-66
2021/10/24 04:35:41;;;;;;;13.55;6.38;;;;;;;;;;5053670;28;20226;-66
2021/10/24 04:38:06;;;;;;;12.57;6.80;;;;;;;;;;5053528;28;20071;-66
2021/10/24 04:40:31;;;;;;;15.93;7.40;;;;;;;;;;5053315;28;20033;-66
2021/10/24 04:42:56;;;;;;;15.52;7.20;;;;;;;;;;5053332;28;20021;-66
2021/10/24 04:45:22;;;;;;;20.83;8.00;;;;;;;;;;5053208;28;20492;-64
2021/10/24 04:47:47;;;;;;;16.35;7.00;;;;;;;;;;5052278;28;20028;-65
2021/10/24 04:50:12;;;;;;;19.13;8.32;;;;;;;;;;5053426;28;20032;-64
2021/10/24 04:52:37;;;;;;;18.58;7.35;;;;;;;;;;5052661;28;20028;-65
2021/10/24 04:55:04;;;;;;;14.45;7.40;;;;;;;;;;5053547;28;20522;-65
2021/10/24 04:57:30;;;;;;;18.00;7.55;;;;;;;;;;5052514;28;20017;-66
2021/10/24 04:59:56;;;;;;;16.60;7.57;;;;;;;;;;5053209;28;20094;-66
2021/10/24 05:02:21;;;;;;;14.48;7.43;;;;;;;;;;5051474;28;20064;-64
2021/10/24 05:04:46;;;;;;;17.60;7.25;;;;;;;;;;5053422;28;20025;-65
2021/10/24 05:07:11;;;;;;;19.35;8.35;;;;;;;;;;5052884;28;20025;-64
2021/10/24 05:09:37;;;;;;;16.60;7.18;;;;;;;;;;5052965;28;20025;-64
2021/10/24 05:12:02;;;;;;;22.10;7.72;;;;;;;;;;5055381;28;20102;-65
2021/10/24 05:14:27;;;;;;;12.00;6.72;;;;;;;;;;5053121;28;20017;-64
2021/10/24 05:16:52;;;;;;;18.75;7.10;;;;;;;;;;5053281;28;20021;-64
2021/10/24 05:19:17;;;;;;;24.65;8.10;;;;;;;;;;5064259;28;20092;-66
2021/10/24 05:21:42;;;;;;;17.08;6.45;;;;;;;;;;5053105;28;20495;-63
2021/10/24 05:24:09;;;;;;;12.20;7.60;;;;;;;;;;5052919;28;20036;-63
2021/10/24 05:26:34;;;;;;;18.50;7.68;;;;;;;;;;5052794;28;20032;-64
2021/10/24 05:29:00;;;;;;;21.13;8.35;;;;;;;;;;5052673;28;20029;-64
2021/10/24 05:31:25;;;;;;;18.95;7.55;;;;;;;;;;5053240;28;20386;-65
2021/10/24 05:33:50;;;;;;;25.73;7.57;;;;;;;;;;5052668;28;20074;-64
2021/10/24 05:36:15;;;;;;;16.42;7.32;;;;;;;;;;5053155;28;20033;-65
2021/10/24 05:38:41;;;;;;;24.23;10.27;;;;;;;;;;5052897;28;20033;-63
2021/10/24 05:41:06;;;;;;;15.75;6.60;;;;;;;;;;5048750;28;20359;-64
2021/10/24 05:43:31;;;;;;;10.88;6.25;;;;;;;;;;5039246;28;20037;-63
2021/10/24 05:45:56;;;;;;;17.85;6.50;;;;;;;;;;5052760;28;20013;-64
2021/10/24 05:48:22;;;;;;;16.75;7.57;;;;;;;;;;5052204;28;20024;-63
2021/10/24 05:50:47;;;;;;;16.85;6.32;;;;;;;;;;5052270;28;20024;-64
2021/10/24 05:53:12;;;;;;;14.10;6.72;;;;;;;;;;5051757;28;20444;-63
2021/10/24 05:55:38;;;;;;;19.08;6.43;;;;;;;;;;5052485;28;20060;-65
2021/10/24 05:58:03;;;;;;;17.15;6.85;;;;;;;;;;5051929;28;20026;-66
2021/10/24 06:00:28;;;;;;;22.08;6.93;;;;;;;;;;5032619;28;20029;-64
2021/10/24 06:02:53;;;;;;;15.02;6.47;;;;;;;;;;5032398;28;20025;-63
2021/10/24 06:05:19;;;;;;;23.02;7.90;;;;;;;;;;5032669;28;20096;-65
2021/10/24 06:07:44;;;;;;;20.67;7.38;;;;;;;;;;5048432;28;20029;-63
2021/10/24 06:10:13;;;;;;;15.40;6.50;;;;;;;;;;5052543;28;20024;-65
2021/10/24 06:12:45;;;;;;;17.02;6.95;;;;;;;;;;5032175;28;20036;-65
2021/10/24 06:15:11;;;;;;;17.25;6.95;;;;;;;;;;5032589;28;20025;-65
2021/10/24 06:17:36;;;;;;;15.73;7.47;;;;;;;;;;5047064;28;20388;-65
2021/10/24 06:20:02;;;;;;;20.13;7.25;;;;;;;;;;5049899;28;20045;-64
2021/10/24 06:22:27;;;;;;;16.73;7.20;;;;;;;;;;5051478;28;20104;-63
2021/10/24 06:24:53;;;;;;;18.33;6.85;;;;;;;;;;5052144;28;20025;-65
2021/10/24 06:27:18;;;;;;;16.70;7.10;;;;;;;;;;5051150;28;20021;-64
2021/10/24 06:29:43;;;;;;;16.58;7.63;;;;;;;;;;5051751;28;20396;-65
2021/10/24 06:32:08;;;;;;;19.33;8.23;;;;;;;;;;5051926;28;20457;-64
2021/10/24 06:34:34;;;;;;;19.02;8.07;;;;;;;;;;5051893;28;20024;-64
2021/10/24 06:36:59;;;;;;;24.20;7.75;;;;;;;;;;5051391;28;20102;-64
2021/10/24 06:39:24;;;;;;;19.50;8.23;;;;;;;;;;5051614;28;20392;-64
2021/10/24 06:41:49;;;;;;;19.58;8.48;;;;;;;;;;5051236;28;20029;-65
2021/10/24 06:44:15;;;;;;;19.83;7.97;;;;;;;;;;5048807;28;20041;-63
2021/10/24 06:46:40;;;;;;;20.98;9.52;;;;;;;;;;5049070;28;20021;-63
2021/10/24 06:49:05;;;;;;;19.40;8.52;;;;;;;;;;5045826;28;20039;-65
2021/10/24 06:51:30;;;;;;;18.13;8.10;;;;;;;;;;5028975;28;20014;-64
2021/10/24 06:53:56;;;;;;;20.60;8.38;;;;;;;;;;5028823;28;20041;-64
2021/10/24 06:56:21;;;;;;;18.00;7.43;;;;;;;;;;5042283;28;20386;-64
2021/10/24 06:58:46;;;;;;;11.20;6.43;;;;;;;;;;5032400;28;20105;-64
2021/10/24 07:01:12;;;;;;;12.40;5.90;;;;;;;;;;5031693;28;20020;-63
2021/10/24 07:03:37;;;;;;;17.20;6.22;;;;;;;;;;5048457;28;20481;-65
2021/10/24 07:06:02;;;;;;;12.70;5.10;;;;;;;;;;5045141;28;20023;-64
2021/10/24 07:08:27;;;;;;;11.87;5.00;;;;;;;;;;5048418;28;20295;-65
2021/10/24 07:10:52;;;;;;;16.10;5.43;;;;;;;;;;5048591;28;20323;-64
2021/10/24 07:13:17;;;;;;;13.98;5.65;;;;;;;;;;5047034;28;20760;-64
2021/10/24 07:15:43;;;;;;;17.70;5.13;;;;;;;;;;5048697;28;20025;-64
2021/10/24 07:18:09;;;;;;;8.70;4.27;;;;;;;;;;5048836;28;20033;-64
2021/10/24 07:20:35;;;;;;;17.00;5.22;;;;;;;;;;5041723;28;20268;-64
2021/10/24 07:23:00;;;;;;;9.00;3.75;;;;;;;;;;5046123;28;20027;-64
2021/10/24 07:25:25;;;;;;;11.23;3.78;;;;;;;;;;5044514;28;20029;-64
2021/10/24 07:27:50;;;;;;;7.65;2.53;;;;;;;;;;5045140;28;20456;-67
2021/10/24 07:30:16;;;;;;;8.57;4.47;;;;;;;;;;5040636;28;20409;-63
2021/10/24 07:32:41;;;;;;;5.80;3.45;;;;;;;;;;5037968;28;20498;-63
2021/10/24 07:35:06;;;;;;;7.40;3.90;;;;;;;;;;5041816;28;20017;-66
2021/10/24 07:37:32;;;;;;;3.60;2.17;;;;;;;;;;5047030;28;20025;-64
2021/10/24 07:39:57;;;;;;;6.70;3.28;;;;;;;;;;5048203;28;20032;-64
2021/10/24 07:42:22;;;;;;;7.03;2.10;;;;;;;;;;5048094;28;20432;-64
2021/10/24 07:44:48;;;;;;;7.18;3.58;;;;;;;;;;5047770;28;20036;-64
2021/10/24 07:47:13;;;;;;;10.43;4.03;;;;;;;;;;5048359;28;20013;-65
2021/10/24 07:49:39;;;;;;;5.25;3.05;;;;;;;;;;5047895;28;20473;-65
2021/10/24 07:52:04;;;;;;;7.37;2.60;;;;;;;;;;5031675;28;20032;-64
2021/10/24 07:54:29;;;;;;;6.05;2.08;;;;;;;;;;5028443;28;20280;-65
2021/10/24 07:56:55;;;;;;;8.23;3.58;;;;;;;;;;5028338;28;20466;-64
2021/10/24 07:59:20;;;;;;;7.30;3.33;;;;;;;;;;5030143;28;20068;-64
2021/10/24 08:01:45;;;;;;;4.38;2.53;;;;;;;;;;5041481;28;20026;-65
2021/10/24 08:04:11;;;;;;;13.98;3.25;;;;;;;;;;5046740;28;20020;-64
2021/10/24 08:06:36;;;;;;;3.60;2.13;;;;;;;;;;5048174;28;20070;-65
2021/10/24 08:09:05;;;;;;;6.70;2.38;;;;;;;;;;5043816;28;20030;-65
2021/10/24 08:11:31;;;;;;;11.02;4.15;;;;;;;;;;5032678;28;20022;-65
2021/10/24 08:13:57;;;;;;;7.28;3.17;;;;;;;;;;5042025;28;20444;-63
2021/10/24 08:16:22;;;;;;;7.32;2.45;;;;;;;;;;5049379;28;20025;-64
2021/10/24 08:18:48;;;;;;;7.37;1.83;;;;;;;;;;5048406;28;20021;-64
2021/10/24 08:21:13;;;;;;;9.65;2.38;;;;;;;;;;5049595;28;20274;-66
2021/10/24 08:23:38;;;;;;;8.35;3.15;;;;;;;;;;5049278;28;20028;-65
2021/10/24 08:26:03;;;;;;;5.30;1.77;;;;;;;;;;5049757;28;20017;-66
2021/10/24 08:28:28;;;;;;;7.10;2.00;;;;;;;;;;5049637;28;20017;-65
2021/10/24 08:30:54;;;;;;;4.73;1.90;;;;;;;;;;5049887;28;20680;-64
2021/10/24 08:33:19;;;;;;;15.30;2.40;;;;;;;;;;5049971;28;20265;-64
2021/10/24 08:35:45;;;;;;;6.43;2.25;;;;;;;;;;5048075;28;20020;-64
2021/10/24 08:38:10;;;;;;;9.15;2.33;;;;;;;;;;5048293;28;20100;-63
2021/10/24 08:40:37;;;;;;;10.15;2.20;;;;;;;;;;5049629;28;20028;-65
2021/10/24 08:43:14;;;;;;;6.68;2.13;;;;;;;;;;5049546;28;20013;-64
2021/10/24 08:45:40;;;;;;;5.72;2.17;;;;;;;;;;5049472;28;20045;-65
2021/10/24 08:48:05;;;;;;;9.95;2.50;;;;;;;;;;5046266;28;20024;-65
2021/10/24 08:50:32;;;;;;;2.17;1.25;;;;;;;;;;5049526;28;20028;-65
2021/10/24 08:52:58;;;;;;;3.25;1.83;;;;;;;;;;5049747;28;20487;-65
2021/10/24 08:55:23;;;;;;;2.40;0.77;;;;;;;;;;5049283;28;20389;-65
2021/10/24 08:57:49;;;;;;;9.25;2.25;;;;;;;;;;5048810;28;20017;-65
2021/10/24 09:00:15;;;;;;;12.32;2.70;;;;;;;;;;5049716;28;20033;-65
2021/10/24 09:02:52;;;;;;;2.65;1.45;;;;;;;;;;5049157;28;20029;-66
2021/10/24 09:05:44;;;;;;;4.85;1.42;;;;;;;;;;5037052;28;20040;-65
2021/10/24 09:08:18;;;;;;;8.70;2.45;;;;;;;;;;5044315;28;20025;-65
2021/10/24 09:10:47;;;;;;;3.97;2.17;;;;;;;;;;5048757;28;20476;-65
2021/10/24 09:13:17;;;;;;;9.37;2.63;;;;;;;;;;5048920;28;20370;-66
2021/10/24 09:15:47;;;;;;;8.25;2.38;;;;;;;;;;5052339;28;20021;-65
2021/10/24 09:18:13;;;;;;;10.55;3.08;;;;;;;;;;5052480;28;20025;-66
2021/10/24 09:20:39;;;;;;;6.28;3.00;;;;;;;;;;5052767;28;20027;-66
2021/10/24 09:23:05;;;;;;;8.68;1.55;;;;;;;;;;5052555;28;20017;-65
2021/10/24 09:25:30;;;;;;;6.82;3.15;;;;;;;;;;5051502;28;20021;-65
2021/10/24 09:27:57;;;;;;;5.60;2.95;;;;;;;;;;5051028;28;20524;-65
2021/10/24 09:30:27;;;;;;;8.25;2.97;;;;;;;;;;5050741;28;20039;-64
2021/10/24 09:32:56;;;;;;;6.18;1.83;;;;;;;;;;5050604;28;20027;-64
2021/10/24 09:35:26;;;;;;;6.68;2.38;;;;;;;;;;5050561;28;20025;-64
2021/10/24 09:37:52;;;;;;;7.35;2.28;;;;;;;;;;5047599;28;20317;-65
2021/10/24 09:40:17;;;;;;;13.85;2.90;;;;;;;;;;5052118;28;20035;-64
2021/10/24 09:42:43;;;;;;;7.50;1.92;;;;;;;;;;5051641;28;20029;-66
2021/10/24 09:45:10;;;;;;;3.05;1.45;;;;;;;;;;5052064;28;20016;-64
2021/10/24 09:47:39;;;;;;;4.75;2.20;;;;;;;;;;5051643;28;20025;-64
2021/10/24 09:50:10;;;;;;;5.03;2.65;;;;;;;;;;5049167;28;20041;-64
2021/10/24 09:52:35;;;;;;;7.40;1.98;;;;;;;;;;5051228;28;20027;-65
2021/10/24 09:55:02;;;;;;;4.10;1.58;;;;;;;;;;5051603;28;20410;-65
2021/10/24 09:57:28;;;;;;;4.30;1.80;;;;;;;;;;5051546;28;20021;-65
2021/10/24 09:59:53;;;;;;;7.25;1.80;;;;;;;;;;5052005;28;20097;-64
2021/10/24 10:02:19;;;;;;;2.92;1.33;;;;;;;;;;5051828;28;20016;-64
2021/10/24 10:04:45;;;;;;;4.88;2.15;;;;;;;;;;5051667;28;20052;-64
2021/10/24 10:07:11;;;;;;;6.90;2.90;;;;;;;;;;5050489;28;20465;-64
2021/10/24 10:09:36;;;;;;;7.95;2.33;;;;;;;;;;5052057;28;20048;-64
2021/10/24 10:12:03;;;;;;;5.45;1.48;;;;;;;;;;5045119;28;20465;-65
2021/10/24 10:14:30;;;;;;;12.43;2.85;;;;;;;;;;5052218;28;20017;-64
2021/10/24 10:17:13;;;;;;;11.45;1.75;;;;;;;;;;5052031;28;20013;-65
2021/10/24 10:19:40;;;;;;;8.10;3.20;;;;;;;;;;5051294;28;20028;-67
2021/10/24 10:22:23;;;;;;;6.57;2.30;;;;;;;;;;5051526;28;20044;-64
2021/10/24 10:24:53;;;;;;;6.82;2.05;;;;;;;;;;5050584;28;20477;-65
2021/10/24 10:27:27;;;;;;;4.15;1.67;;;;;;;;;;5051254;28;20512;-63
2021/10/24 10:29:57;;;;;;;7.35;1.42;;;;;;;;;;5051150;28;20028;-64
2021/10/24 10:32:31;;;;;;;6.55;2.10;;;;;;;;;;5051220;28;20225;-64
2021/10/24 10:34:56;;;;;;;7.25;2.05;;;;;;;;;;5049335;28;20029;-64
2021/10/24 10:37:40;;;;;;;4.20;2.13;;;;;;;;;;5049704;28;20028;-66
2021/10/24 10:40:12;;;;;;;6.70;2.38;;;;;;;;;;5051543;28;20696;-64
2021/10/24 10:42:42;;;;;;;7.30;2.55;;;;;;;;;;5050580;28;20032;-65
2021/10/24 10:45:16;;;;;;;3.65;2.08;;;;;;;;;;5050834;28;20024;-64
2021/10/24 10:47:53;;;;;;;10.73;3.63;;;;;;;;;;5051119;28;20029;-65
2021/10/24 10:50:28;;;;;;;9.15;2.20;;;;;;;;;;5051367;28;20032;-66
2021/10/24 10:52:53;;;;;;;1.73;1.30;;;;;;;;;;5049787;28;20091;-66
2021/10/24 10:55:19;;;;;;;6.00;2.13;;;;;;;;;;5050232;28;20021;-65
2021/10/24 10:57:44;;;;;;;1.92;1.42;;;;;;;;;;5050449;28;20079;-65
2021/10/24 11:00:33;;;;;;;11.90;2.42;;;;;;;;;;5051709;28;20032;-67
2021/10/24 11:02:58;;;;;;;4.03;1.42;;;;;;;;;;5040834;28;20108;-66
2021/10/24 11:05:33;;;;;;;3.47;1.50;;;;;;;;;;5051311;28;20422;-66
2021/10/24 11:07:59;;;;;;;5.60;2.35;;;;;;;;;;5051284;28;20028;-65
2021/10/24 11:10:43;;;;;;;7.77;2.27;;;;;;;;;;5051118;28;20028;-65
2021/10/24 11:13:27;;;;;;;3.45;1.55;;;;;;;;;;5050714;28;20285;-66
2021/10/24 11:15:52;;;;;;;8.65;1.65;;;;;;;;;;5050900;28;20021;-66
2021/10/24 11:18:32;;;;;;;5.43;2.20;;;;;;;;;;5050833;28;20446;-65
2021/10/24 11:20:58;;;;;;;9.52;1.98;;;;;;;;;;5050855;28;20056;-64
2021/10/24 11:23:24;;;;;;;4.82;1.83;;;;;;;;;;5050582;28;20052;-64
2021/10/24 11:25:50;;;;;;;4.00;2.17;;;;;;;;;;5050653;28;20123;-64
2021/10/24 11:28:20;;;;;;;5.95;2.00;;;;;;;;;;5050709;28;20025;-64
2021/10/24 11:30:46;;;;;;;6.32;2.50;;;;;;;;;;5050473;28;20124;-64
2021/10/24 11:33:12;;;;;;;12.52;1.95;;;;;;;;;;5050854;28;20044;-65
2021/10/24 11:35:39;;;;;;;3.38;1.20;;;;;;;;;;5050578;28;20036;-67
2021/10/24 11:38:05;;;;;;;8.60;1.60;;;;;;;;;;5050258;28;20017;-67
2021/10/24 11:40:32;;;;;;;1.98;1.00;;;;;;;;;;5051559;28;20057;-64
2021/10/24 11:42:59;;;;;;;4.60;2.38;;;;;;;;;;5050661;28;20025;-64
2021/10/24 11:45:25;;;;;;;10.85;1.92;;;;;;;;;;5050731;28;20083;-64
2021/10/24 11:48:00;;;;;;;3.20;1.20;;;;;;;;;;5050370;28;20386;-64
2021/10/24 11:50:35;;;;;;;3.28;1.05;;;;;;;;;;5050452;28;20280;-64
2021/10/24 11:53:00;;;;;;;8.25;1.40;;;;;;;;;;5050200;28;20016;-66
2021/10/24 11:55:26;;;;;;;3.00;1.27;;;;;;;;;;5050696;28;20114;-65
2021/10/24 11:58:39;;;;;;;2.33;1.35;;;;;;;;;;5050445;28;20090;-65
2021/10/24 12:00:51;;;;;;;4.28;1.50;;;;;;;;;;5041991;28;20037;-66
2021/10/24 12:03:24;;;;;;;5.22;1.77;;;;;;;;;;5049820;28;20108;-65
2021/10/24 12:05:49;;;;;;;10.32;1.95;;;;;;;;;;5050112;28;20020;-65
2021/10/24 12:08:15;;;;;;;7.75;2.13;;;;;;;;;;5050298;28;20426;-65
2021/10/24 12:10:46;;;;;;;6.32;2.25;;;;;;;;;;5050134;28;20428;-66
2021/10/24 12:13:30;;;;;;;2.70;1.08;;;;;;;;;;5050004;28;20020;-65
2021/10/24 12:15:55;;;;;;;3.33;1.75;;;;;;;;;;5050232;28;20021;-67
2021/10/24 12:18:24;;;;;;;2.95;1.58;;;;;;;;;;5050097;28;20021;-66
2021/10/24 12:20:53;;;;;;;4.95;1.85;;;;;;;;;;5048576;28;20025;-67
2021/10/24 12:23:18;;;;;;;3.17;1.45;;;;;;;;;;5049337;28;20405;-65
2021/10/24 12:25:54;;;;;;;4.20;1.20;;;;;;;;;;5050337;28;20025;-66
2021/10/24 12:28:25;;;;;;;2.70;1.48;;;;;;;;;;5050122;28;20028;-66
2021/10/24 12:30:50;;;;;;;;;;;;;;;;;;5050786;28;20024;-66
2021/10/24 12:33:25;;;;;;;3.88;1.35;;;;;;;;;;5049900;28;19905;-65
2021/10/24 12:35:50;;;;;;;3.88;1.83;;;;;;;;;;5050265;28;20016;-67
2021/10/24 12:38:16;;;;;;;10.95;1.90;;;;;;;;;;5049449;28;20017;-66
2021/10/24 12:40:52;;;;;;;4.93;1.70;;;;;;;;;;5049856;28;20039;-65
2021/10/24 12:43:18;;;;;;;7.97;1.80;;;;;;;;;;5049305;28;20024;-67
2021/10/24 12:45:44;;;;;;;8.60;1.58;;;;;;;;;;5049685;28;20078;-67
2021/10/24 12:48:10;;;;;;;3.00;1.08;;;;;;;;;;5050055;28;20112;-66
2021/10/24 12:50:36;;;;;;;7.03;1.38;;;;;;;;;;5053542;28;20091;-66
2021/10/24 12:53:03;;;;;;;3.70;1.95;;;;;;;;;;5053939;28;20473;-65
2021/10/24 12:55:29;;;;;;;8.93;2.55;;;;;;;;;;5053546;28;20025;-65
2021/10/24 12:57:54;;;;;;;8.88;2.05;;;;;;;;;;5053371;28;20510;-67
2021/10/24 13:00:20;;;;;;;1.63;1.20;;;;;;;;;;5052062;28;20060;-66
2021/10/24 13:02:45;;;;;;;3.80;1.23;;;;;;;;;;5050848;28;20082;-67
2021/10/24 13:05:10;;;;;;;5.60;1.53;;;;;;;;;;5052705;28;20021;-65
2021/10/24 13:07:35;;;;;;;3.05;1.17;;;;;;;;;;5052741;28;20271;-66
2021/10/24 13:10:00;;;;;;;8.38;1.35;;;;;;;;;;5053144;28;20067;-66
2021/10/24 13:12:26;;;;;;;4.17;1.50;;;;;;;;;;5052808;28;20481;-67
2021/10/24 13:14:51;;;;;;;2.20;1.10;;;;;;;;;;5052445;28;20299;-67
2021/10/24 13:17:16;;;;;;;3.00;1.40;;;;;;;;;;5052859;28;20821;-66
2021/10/24 13:19:41;;;;;;;4.00;1.45;;;;;;;;;;5052992;28;20271;-66
2021/10/24 13:24:50;;;;;;;2.88;1.38;;;;;;;;;;5052556;28;20263;-67
2021/10/24 13:27:16;;;;;;;2.38;0.80;;;;;;;;;;5052362;28;20033;-66
2021/10/24 13:29:42;;;;;;;3.88;1.63;;;;;;;;;;5052540;28;20025;-65
2021/10/24 13:32:07;;;;;;;2.58;0.98;;;;;;;;;;5052530;28;20017;-66
2021/10/24 13:34:33;;;;;;;3.22;1.27;;;;;;;;;;5052264;28;20509;-66
2021/10/24 13:36:58;;;;;;;3.42;1.13;;;;;;;;;;5052510;28;20118;-65
2021/10/24 13:39:23;;;;;;;5.30;1.70;;;;;;;;;;5052557;28;20095;-66
2021/10/24 13:41:50;;;;;;;3.05;0.75;;;;;;;;;;5052252;28;20274;-66
2021/10/24 13:44:15;;;;;;;3.88;1.15;;;;;;;;;;5052191;28;20079;-65
2021/10/24 13:46:40;;;;;;;5.40;1.93;;;;;;;;;;5049340;28;20493;-67
2021/10/24 13:49:06;;;;;;;7.25;1.77;;;;;;;;;;5051810;28;20272;-66
2021/10/24 13:51:31;;;;;;;1.33;0.75;;;;;;;;;;5051955;28;20469;-67
2021/10/24 13:53:56;;;;;;;4.30;1.65;;;;;;;;;;5051777;28;20093;-66
2021/10/24 13:56:21;;;;;;;4.53;1.60;;;;;;;;;;5052157;28;20029;-66
2021/10/24 13:58:47;;;;;;;1.63;1.00;;;;;;;;;;5052161;28;20047;-67
2021/10/24 14:01:12;;;;;;;7.47;2.20;;;;;;;;;;5051023;28;20540;-66
2021/10/24 14:03:37;;;;;;;2.23;1.07;;;;;;;;;;5051276;28;20260;-67
2021/10/24 14:06:03;;;;;;;3.25;1.58;;;;;;;;;;5051485;28;20279;-66
2021/10/24 14:08:29;;;;;;;6.03;1.85;;;;;;;;;;5051850;28;20473;-67
2021/10/24 14:10:54;;;;;;;3.70;1.20;;;;;;;;;;5051680;28;20036;-66
2021/10/24 14:13:20;;;;;;;5.50;1.70;;;;;;;;;;5051207;28;20044;-65
2021/10/24 14:15:45;;;;;;;6.97;2.50;;;;;;;;;;5052147;28;20570;-67
2021/10/24 14:18:10;;;;;;;5.28;1.25;;;;;;;;;;5051442;28;20021;-67
2021/10/24 14:20:35;;;;;;;3.33;1.10;;;;;;;;;;5051588;28;20572;-67
2021/10/24 14:23:00;;;;;;;2.95;1.13;;;;;;;;;;5050978;28;20554;-67
2021/10/24 14:25:26;;;;;;;2.57;1.20;;;;;;;;;;5051349;28;20108;-66
2021/10/24 14:27:51;;;;;;;1.90;1.05;;;;;;;;;;5051018;28;20277;-65
2021/10/24 14:30:16;;;;;;;4.40;1.35;;;;;;;;;;5051415;28;20111;-67
2021/10/24 14:32:41;;;;;;;2.03;1.27;;;;;;;;;;5051343;28;20104;-66
2021/10/24 14:35:07;;;;;;;3.88;1.50;;;;;;;;;;5050878;28;20031;-66